KDK weather

Kodiak Municipal Airport
Kodiak, Alaska, United States

Public forecast

Using degrees Fahrenheit for public forecast. Weather courtesy of forecast.io.

Closest aviation weather report (METAR) to Kodiak Municipal Airport

Closest report is Kodiak Airport, 5.1 nm (9.4 km) SW. Retrieved 2020/04/05 09:53 UTC (38 minutes ago):

PADQ 050953Z AUTO VRB06KT 10SM CLR 06/M02 A2994

Closest aviation forecast (TAF) to Kodiak Municipal Airport

Closest forecast is Kodiak Airport, 5.1 nm (9.4 km) SW. Retrieved 2020/04/05 06:40 UTC (4 hours ago):

TAF PADQ 050538Z 0506/0606 31015G22KT P6SM FEW050 BKN120 FM051200 28012KT P6SM FEW050 SCT120 FM060200 27020G28KT P6SM FEW050 SCT120